sensor_id;sensor_type;location;lat;lon;timestamp;pressure;altitude;pressure_sealevel;temperature;humidity
65756;BME280;52489;47.502;18.940;2023-02-19T00:00:22;98235.59;;;9.71;69.63
65756;BME280;52489;47.502;18.940;2023-02-19T00:01:45;98232.63;;;9.59;69.93
65756;BME280;52489;47.502;18.940;2023-02-19T00:02:48;98233.66;;;9.57;70.09
65756;BME280;52489;47.502;18.940;2023-02-19T00:03:56;98228.88;;;9.65;69.72
65756;BME280;52489;47.502;18.940;2023-02-19T00:04:59;98232.53;;;9.64;69.68
65756;BME280;52489;47.502;18.940;2023-02-19T00:06:07;98238.53;;;9.64;69.73
65756;BME280;52489;47.502;18.940;2023-02-19T00:07:10;98233.56;;;9.82;68.96
65756;BME280;52489;47.502;18.940;2023-02-19T00:08:13;98238.03;;;9.81;68.85
65756;BME280;52489;47.502;18.940;2023-02-19T00:09:18;98234.00;;;9.70;69.57
65756;BME280;52489;47.502;18.940;2023-02-19T00:10:21;98236.41;;;9.66;69.65
65756;BME280;52489;47.502;18.940;2023-02-19T00:11:29;98237.62;;;9.55;70.24
65756;BME280;52489;47.502;18.940;2023-02-19T00:12:33;98238.47;;;9.50;70.43
65756;BME280;52489;47.502;18.940;2023-02-19T00:13:40;98224.97;;;9.62;69.86
65756;BME280;52489;47.502;18.940;2023-02-19T00:14:43;98225.19;;;9.66;69.71
65756;BME280;52489;47.502;18.940;2023-02-19T00:15:46;98230.28;;;9.57;69.87
65756;BME280;52489;47.502;18.940;2023-02-19T00:16:49;98234.44;;;9.58;69.80
65756;BME280;52489;47.502;18.940;2023-02-19T00:17:52;98225.91;;;9.52;69.94
65756;BME280;52489;47.502;18.940;2023-02-19T00:18:56;98230.56;;;9.55;69.86
65756;BME280;52489;47.502;18.940;2023-02-19T00:19:59;98227.97;;;9.55;69.72
65756;BME280;52489;47.502;18.940;2023-02-19T00:21:02;98222.44;;;9.57;69.76
65756;BME280;52489;47.502;18.940;2023-02-19T00:22:05;98219.53;;;9.59;69.64
65756;BME280;52489;47.502;18.940;2023-02-19T00:23:08;98227.41;;;9.59;69.77
65756;BME280;52489;47.502;18.940;2023-02-19T00:24:12;98215.66;;;9.56;69.69
65756;BME280;52489;47.502;18.940;2023-02-19T00:25:15;98225.03;;;9.76;68.98
65756;BME280;52489;47.502;18.940;2023-02-19T00:26:19;98223.22;;;9.76;68.75
65756;BME280;52489;47.502;18.940;2023-02-19T00:27:22;98226.41;;;9.73;68.89
65756;BME280;52489;47.502;18.940;2023-02-19T00:28:26;98225.13;;;9.71;68.90
65756;BME280;52489;47.502;18.940;2023-02-19T00:29:29;98229.91;;;9.83;68.57
65756;BME280;52489;47.502;18.940;2023-02-19T00:30:32;98229.81;;;9.88;68.45
65756;BME280;52489;47.502;18.940;2023-02-19T00:31:35;98223.34;;;9.85;68.43
65756;BME280;52489;47.502;18.940;2023-02-19T00:32:38;98222.22;;;9.72;69.09
65756;BME280;52489;47.502;18.940;2023-02-19T00:33:41;98225.97;;;9.66;69.33
65756;BME280;52489;47.502;18.940;2023-02-19T00:34:44;98228.78;;;9.70;69.25
65756;BME280;52489;47.502;18.940;2023-02-19T00:35:46;98227.63;;;9.76;68.76
65756;BME280;52489;47.502;18.940;2023-02-19T00:36:49;98222.38;;;9.62;69.44
65756;BME280;52489;47.502;18.940;2023-02-19T00:37:52;98229.00;;;9.73;68.99
65756;BME280;52489;47.502;18.940;2023-02-19T00:38:55;98224.22;;;9.62;69.54
65756;BME280;52489;47.502;18.940;2023-02-19T00:39:59;98229.56;;;9.51;69.78
65756;BME280;52489;47.502;18.940;2023-02-19T00:41:02;98228.59;;;9.47;70.03
65756;BME280;52489;47.502;18.940;2023-02-19T00:42:20;98223.34;;;9.47;70.05
65756;BME280;52489;47.502;18.940;2023-02-19T00:43:23;98216.84;;;9.64;69.36
65756;BME280;52489;47.502;18.940;2023-02-19T00:44:26;98209.91;;;9.73;68.89
65756;BME280;52489;47.502;18.940;2023-02-19T00:45:29;98214.16;;;9.69;69.28
65756;BME280;52489;47.502;18.940;2023-02-19T00:46:45;98222.38;;;9.62;69.67
65756;BME280;52489;47.502;18.940;2023-02-19T00:47:49;98210.06;;;9.63;69.81
65756;BME280;52489;47.502;18.940;2023-02-19T00:48:52;98216.94;;;9.59;69.68
65756;BME280;52489;47.502;18.940;2023-02-19T00:49:55;98213.59;;;9.72;69.46
65756;BME280;52489;47.502;18.940;2023-02-19T00:50:58;98217.47;;;9.74;69.31
65756;BME280;52489;47.502;18.940;2023-02-19T00:52:01;98219.84;;;9.90;68.56
65756;BME280;52489;47.502;18.940;2023-02-19T00:53:04;98214.81;;;9.93;68.64
65756;BME280;52489;47.502;18.940;2023-02-19T00:54:07;98221.88;;;9.79;69.06
65756;BME280;52489;47.502;18.940;2023-02-19T00:55:09;98222.41;;;9.76;69.23
65756;BME280;52489;47.502;18.940;2023-02-19T00:56:13;98222.91;;;9.78;69.11
65756;BME280;52489;47.502;18.940;2023-02-19T00:57:16;98217.94;;;9.95;68.60
65756;BME280;52489;47.502;18.940;2023-02-19T00:58:18;98218.09;;;9.85;68.96
65756;BME280;52489;47.502;18.940;2023-02-19T00:59:21;98222.41;;;9.95;68.65
65756;BME280;52489;47.502;18.940;2023-02-19T01:00:24;98215.53;;;9.99;68.46
65756;BME280;52489;47.502;18.940;2023-02-19T01:01:27;98215.06;;;9.97;68.47
65756;BME280;52489;47.502;18.940;2023-02-19T01:02:30;98210.47;;;9.89;68.91
65756;BME280;52489;47.502;18.940;2023-02-19T01:03:34;98218.09;;;9.85;68.78
65756;BME280;52489;47.502;18.940;2023-02-19T01:04:37;98214.09;;;9.74;69.54
65756;BME280;52489;47.502;18.940;2023-02-19T01:05:40;98213.50;;;9.77;69.59
65756;BME280;52489;47.502;18.940;2023-02-19T01:06:43;98207.06;;;9.88;68.68
65756;BME280;52489;47.502;18.940;2023-02-19T01:07:46;98205.16;;;9.75;69.60
65756;BME280;52489;47.502;18.940;2023-02-19T01:08:49;98217.47;;;9.74;69.69
65756;BME280;52489;47.502;18.940;2023-02-19T01:09:52;98211.88;;;9.81;69.57
65756;BME280;52489;47.502;18.940;2023-02-19T01:10:55;98207.59;;;9.71;69.66
65756;BME280;52489;47.502;18.940;2023-02-19T01:11:58;98212.78;;;9.90;68.98
65756;BME280;52489;47.502;18.940;2023-02-19T01:13:01;98218.44;;;9.97;68.78
65756;BME280;52489;47.502;18.940;2023-02-19T01:14:04;98219.09;;;9.89;68.90
65756;BME280;52489;47.502;18.940;2023-02-19T01:15:07;98217.47;;;9.74;69.37
65756;BME280;52489;47.502;18.940;2023-02-19T01:16:19;98213.16;;;9.84;69.28
65756;BME280;52489;47.502;18.940;2023-02-19T01:17:23;98212.38;;;9.83;69.33
65756;BME280;52489;47.502;18.940;2023-02-19T01:18:26;98207.22;;;9.78;69.55
65756;BME280;52489;47.502;18.940;2023-02-19T01:19:29;98198.53;;;9.83;69.22
65756;BME280;52489;47.502;18.940;2023-02-19T01:20:33;98205.50;;;9.87;68.79
65756;BME280;52489;47.502;18.940;2023-02-19T01:21:36;98207.66;;;9.85;68.94
65756;BME280;52489;47.502;18.940;2023-02-19T01:22:38;98197.69;;;10.01;68.30
65756;BME280;52489;47.502;18.940;2023-02-19T01:23:42;98209.37;;;10.09;67.80
65756;BME280;52489;47.502;18.940;2023-02-19T01:24:45;98204.22;;;10.03;68.21
65756;BME280;52489;47.502;18.940;2023-02-19T01:25:48;98202.28;;;10.09;67.89
65756;BME280;52489;47.502;18.940;2023-02-19T01:26:51;98191.81;;;10.09;67.77
65756;BME280;52489;47.502;18.940;2023-02-19T01:27:54;98193.31;;;9.96;68.21
65756;BME280;52489;47.502;18.940;2023-02-19T01:28:58;98202.56;;;10.08;67.97
65756;BME280;52489;47.502;18.940;2023-02-19T01:30:02;98205.56;;;10.01;68.19
65756;BME280;52489;47.502;18.940;2023-02-19T01:31:07;98203.44;;;10.03;68.00
65756;BME280;52489;47.502;18.940;2023-02-19T01:32:11;98201.00;;;10.07;68.10
65756;BME280;52489;47.502;18.940;2023-02-19T01:33:14;98204.81;;;10.14;67.77
65756;BME280;52489;47.502;18.940;2023-02-19T01:34:17;98198.31;;;10.12;67.65
65756;BME280;52489;47.502;18.940;2023-02-19T01:35:19;98207.88;;;10.02;67.83
65756;BME280;52489;47.502;18.940;2023-02-19T01:36:23;98208.88;;;10.07;67.55
65756;BME280;52489;47.502;18.940;2023-02-19T01:37:26;98212.19;;;10.12;67.59
65756;BME280;52489;47.502;18.940;2023-02-19T01:38:29;98207.78;;;10.08;67.51
65756;BME280;52489;47.502;18.940;2023-02-19T01:39:32;98213.97;;;9.98;67.94
65756;BME280;52489;47.502;18.940;2023-02-19T01:40:35;98207.28;;;9.92;68.31
65756;BME280;52489;47.502;18.940;2023-02-19T01:41:39;98207.88;;;10.02;68.16
65756;BME280;52489;47.502;18.940;2023-02-19T01:42:42;98206.31;;;10.01;68.41
65756;BME280;52489;47.502;18.940;2023-02-19T01:44:01;98200.19;;;9.92;68.89
65756;BME280;52489;47.502;18.940;2023-02-19T01:45:33;98194.13;;;9.78;69.54
65756;BME280;52489;47.502;18.940;2023-02-19T01:46:39;98193.28;;;9.83;69.53
65756;BME280;52489;47.502;18.940;2023-02-19T01:47:42;98188.41;;;9.76;70.03
65756;BME280;52489;47.502;18.940;2023-02-19T01:48:46;98190.94;;;9.81;70.12
65756;BME280;52489;47.502;18.940;2023-02-19T01:49:53;98198.53;;;9.83;70.02
65756;BME280;52489;47.502;18.940;2023-02-19T01:51:06;98194.37;;;9.63;70.89
65756;BME280;52489;47.502;18.940;2023-02-19T01:52:19;98193.03;;;9.65;70.98
65756;BME280;52489;47.502;18.940;2023-02-19T01:53:26;98189.50;;;9.56;71.64
65756;BME280;52489;47.502;18.940;2023-02-19T01:54:37;98195.06;;;9.49;71.93
65756;BME280;52489;47.502;18.940;2023-02-19T01:55:43;98188.44;;;9.38;72.21
65756;BME280;52489;47.502;18.940;2023-02-19T01:56:49;98181.59;;;9.23;72.87
65756;BME280;52489;47.502;18.940;2023-02-19T01:57:54;98192.31;;;9.22;73.16
65756;BME280;52489;47.502;18.940;2023-02-19T01:58:58;98185.59;;;9.16;73.38
65756;BME280;52489;47.502;18.940;2023-02-19T02:00:05;98182.47;;;9.14;73.57
65756;BME280;52489;47.502;18.940;2023-02-19T02:01:10;98190.81;;;9.16;73.64
65756;BME280;52489;47.502;18.940;2023-02-19T02:02:15;98186.87;;;9.18;73.57
65756;BME280;52489;47.502;18.940;2023-02-19T02:03:18;98191.03;;;9.19;73.51
65756;BME280;52489;47.502;18.940;2023-02-19T02:04:22;98185.25;;;9.22;73.22
65756;BME280;52489;47.502;18.940;2023-02-19T02:05:45;98188.00;;;9.31;72.79
65756;BME280;52489;47.502;18.940;2023-02-19T02:06:52;98179.31;;;9.36;72.51
65756;BME280;52489;47.502;18.940;2023-02-19T02:07:55;98175.94;;;9.35;72.65
65756;BME280;52489;47.502;18.940;2023-02-19T02:09:19;98170.56;;;9.45;72.08
65756;BME280;52489;47.502;18.940;2023-02-19T02:10:42;98180.59;;;9.57;71.60
65756;BME280;52489;47.502;18.940;2023-02-19T02:11:50;98185.13;;;9.32;72.57
65756;BME280;52489;47.502;18.940;2023-02-19T02:12:56;98191.47;;;9.45;72.01
65756;BME280;52489;47.502;18.940;2023-02-19T02:13:59;98191.38;;;9.31;72.55
65756;BME280;52489;47.502;18.940;2023-02-19T02:15:02;98185.84;;;9.38;72.24
65756;BME280;52489;47.502;18.940;2023-02-19T02:16:09;98184.91;;;9.29;72.58
65756;BME280;52489;47.502;18.940;2023-02-19T02:18:53;98175.56;;;9.23;73.00
65756;BME280;52489;47.502;18.940;2023-02-19T02:24:05;98180.44;;;9.10;73.48
65756;BME280;52489;47.502;18.940;2023-02-19T02:30:00;98177.28;;;9.32;73.01
65756;BME280;52489;47.502;18.940;2023-02-19T02:31:13;98171.63;;;9.44;72.66
65756;BME280;52489;47.502;18.940;2023-02-19T02:32:26;98175.72;;;9.50;72.32
65756;BME280;52489;47.502;18.940;2023-02-19T02:34:17;98172.25;;;9.55;72.18
65756;BME280;52489;47.502;18.940;2023-02-19T02:35:10;98183.50;;;9.55;72.26
65756;BME280;52489;47.502;18.940;2023-02-19T02:36:22;98170.91;;;9.39;72.98
65756;BME280;52489;47.502;18.940;2023-02-19T02:37:29;98165.06;;;9.47;72.89
65756;BME280;52489;47.502;18.940;2023-02-19T02:38:37;98157.56;;;9.59;72.46
65756;BME280;52489;47.502;18.940;2023-02-19T02:39:44;98173.38;;;9.49;72.94
65756;BME280;52489;47.502;18.940;2023-02-19T02:40:48;98180.25;;;9.45;73.13
65756;BME280;52489;47.502;18.940;2023-02-19T02:41:58;98167.94;;;9.45;73.16
65756;BME280;52489;47.502;18.940;2023-02-19T02:43:20;98170.84;;;9.44;73.17
65756;BME280;52489;47.502;18.940;2023-02-19T02:44:33;98170.47;;;9.31;73.79
65756;BME280;52489;47.502;18.940;2023-02-19T02:45:36;98172.41;;;9.45;73.58
65756;BME280;52489;47.502;18.940;2023-02-19T02:46:43;98169.91;;;9.34;73.91
65756;BME280;52489;47.502;18.940;2023-02-19T02:47:52;98160.97;;;9.41;73.82
65756;BME280;52489;47.502;18.940;2023-02-19T02:49:13;98171.19;;;9.37;74.05
65756;BME280;52489;47.502;18.940;2023-02-19T02:50:24;98173.47;;;9.44;73.98
65756;BME280;52489;47.502;18.940;2023-02-19T02:51:42;98164.56;;;9.45;74.07
65756;BME280;52489;47.502;18.940;2023-02-19T02:52:49;98161.12;;;9.63;73.27
65756;BME280;52489;47.502;18.940;2023-02-19T02:54:21;98166.47;;;9.39;74.21
65756;BME280;52489;47.502;18.940;2023-02-19T02:55:46;98174.59;;;9.38;74.56
65756;BME280;52489;47.502;18.940;2023-02-19T02:56:51;98169.72;;;9.31;75.16
65756;BME280;52489;47.502;18.940;2023-02-19T02:57:57;98168.59;;;9.18;75.80
65756;BME280;52489;47.502;18.940;2023-02-19T02:59:03;98159.97;;;9.18;76.09
65756;BME280;52489;47.502;18.940;2023-02-19T03:00:08;98163.72;;;9.30;75.75
65756;BME280;52489;47.502;18.940;2023-02-19T03:01:18;98172.75;;;9.19;76.36
65756;BME280;52489;47.502;18.940;2023-02-19T03:02:42;98171.03;;;9.09;76.84
65756;BME280;52489;47.502;18.940;2023-02-19T03:03:47;98167.59;;;9.14;76.78
65756;BME280;52489;47.502;18.940;2023-02-19T03:06:34;98168.59;;;9.18;76.90
65756;BME280;52489;47.502;18.940;2023-02-19T03:09:29;98157.78;;;9.06;77.13
65756;BME280;52489;47.502;18.940;2023-02-19T03:10:54;98161.38;;;9.10;77.10
65756;BME280;52489;47.502;18.940;2023-02-19T03:12:02;98165.50;;;8.92;77.67
65756;BME280;52489;47.502;18.940;2023-02-19T03:13:29;98158.53;;;8.87;77.82
65756;BME280;52489;47.502;18.940;2023-02-19T03:14:58;98164.37;;;8.98;77.10
65756;BME280;52489;47.502;18.940;2023-02-19T03:16:25;98164.53;;;8.88;77.44
65756;BME280;52489;47.502;18.940;2023-02-19T03:17:55;98161.44;;;9.05;76.62
65756;BME280;52489;47.502;18.940;2023-02-19T03:19:22;98159.66;;;9.00;76.50
65756;BME280;52489;47.502;18.940;2023-02-19T03:20:27;98162.91;;;8.92;76.57
65756;BME280;52489;47.502;18.940;2023-02-19T03:21:34;98160.59;;;8.91;76.56
65756;BME280;52489;47.502;18.940;2023-02-19T03:22:41;98154.41;;;8.81;76.89
65756;BME280;52489;47.502;18.940;2023-02-19T03:23:47;98156.47;;;8.84;76.67
65756;BME280;52489;47.502;18.940;2023-02-19T03:25:16;98161.81;;;8.74;77.01
65756;BME280;52489;47.502;18.940;2023-02-19T03:26:40;98167.38;;;8.68;77.25
65756;BME280;52489;47.502;18.940;2023-02-19T03:27:47;98168.41;;;8.66;77.19
65756;BME280;52489;47.502;18.940;2023-02-19T03:28:52;98169.78;;;8.64;77.39
65756;BME280;52489;47.502;18.940;2023-02-19T03:30:18;98168.59;;;8.75;77.04
65756;BME280;52489;47.502;18.940;2023-02-19T03:31:23;98161.81;;;8.74;76.71
65756;BME280;52489;47.502;18.940;2023-02-19T03:32:53;98162.72;;;8.64;77.23
65756;BME280;52489;47.502;18.940;2023-02-19T03:33:57;98158.06;;;8.61;77.30
65756;BME280;52489;47.502;18.940;2023-02-19T03:35:25;98156.25;;;8.57;77.52
65756;BME280;52489;47.502;18.940;2023-02-19T03:36:34;98158.41;;;8.55;77.49
65756;BME280;52489;47.502;18.940;2023-02-19T03:39:07;98165.50;;;8.49;77.57
65756;BME280;52489;47.502;18.940;2023-02-19T03:40:10;98168.66;;;8.46;77.70
65756;BME280;52489;47.502;18.940;2023-02-19T03:44:12;98171.03;;;8.42;77.79
65756;BME280;52489;47.502;18.940;2023-02-19T03:45:32;98172.81;;;8.47;77.45
65756;BME280;52489;47.502;18.940;2023-02-19T03:54:01;98167.78;;;8.27;78.35
65756;BME280;52489;47.502;18.940;2023-02-19T03:58:23;98157.13;;;8.23;78.55
65756;BME280;52489;47.502;18.940;2023-02-19T04:01:14;98163.09;;;8.24;78.37
65756;BME280;52489;47.502;18.940;2023-02-19T04:02:23;98155.44;;;8.32;77.94
65756;BME280;52489;47.502;18.940;2023-02-19T04:04:40;98160.69;;;8.32;78.06
65756;BME280;52489;47.502;18.940;2023-02-19T04:05:51;98165.94;;;8.27;78.26
65756;BME280;52489;47.502;18.940;2023-02-19T04:06:57;98163.66;;;8.20;78.42
65756;BME280;52489;47.502;18.940;2023-02-19T04:08:07;98167.25;;;8.25;78.33
65756;BME280;52489;47.502;18.940;2023-02-19T04:09:13;98168.28;;;8.29;78.05
65756;BME280;52489;47.502;18.940;2023-02-19T04:10:18;98162.56;;;8.27;78.09
65756;BME280;52489;47.502;18.940;2023-02-19T04:11:23;98165.16;;;8.27;78.10
65756;BME280;52489;47.502;18.940;2023-02-19T04:12:27;98164.66;;;8.25;78.20
65756;BME280;52489;47.502;18.940;2023-02-19T04:13:35;98161.38;;;8.43;77.53
65756;BME280;52489;47.502;18.940;2023-02-19T04:14:45;98162.22;;;8.38;77.47
65756;BME280;52489;47.502;18.940;2023-02-19T04:15:50;98162.16;;;8.43;77.30
65756;BME280;52489;47.502;18.940;2023-02-19T04:17:00;98169.91;;;8.49;77.09
65756;BME280;52489;47.502;18.940;2023-02-19T04:18:21;98174.44;;;8.43;77.29
65756;BME280;52489;47.502;18.940;2023-02-19T04:19:26;98169.22;;;8.38;77.38
65756;BME280;52489;47.502;18.940;2023-02-19T04:20:35;98163.50;;;8.36;77.53
65756;BME280;52489;47.502;18.940;2023-02-19T04:21:39;98165.84;;;8.37;77.48
65756;BME280;52489;47.502;18.940;2023-02-19T04:22:43;98179.16;;;8.36;77.66
65756;BME280;52489;47.502;18.940;2023-02-19T04:23:47;98169.28;;;8.33;77.76
65756;BME280;52489;47.502;18.940;2023-02-19T04:24:52;98175.81;;;8.30;77.87
65756;BME280;52489;47.502;18.940;2023-02-19T04:25:58;98166.16;;;8.31;77.80
65756;BME280;52489;47.502;18.940;2023-02-19T04:27:03;98169.56;;;8.31;77.74
65756;BME280;52489;47.502;18.940;2023-02-19T04:28:09;98164.91;;;8.28;77.88
65756;BME280;52489;47.502;18.940;2023-02-19T04:29:12;98170.34;;;8.32;77.61
65756;BME280;52489;47.502;18.940;2023-02-19T04:30:16;98163.06;;;8.29;77.70
65756;BME280;52489;47.502;18.940;2023-02-19T04:31:19;98167.00;;;8.26;77.65
65756;BME280;52489;47.502;18.940;2023-02-19T04:32:22;98175.22;;;8.43;76.84
65756;BME280;52489;47.502;18.940;2023-02-19T04:33:25;98179.09;;;8.46;76.83
65756;BME280;52489;47.502;18.940;2023-02-19T04:34:28;98182.41;;;8.52;76.36
65756;BME280;52489;47.502;18.940;2023-02-19T04:35:31;98182.50;;;8.47;76.49
65756;BME280;52489;47.502;18.940;2023-02-19T04:36:34;98180.50;;;8.33;76.99
65756;BME280;52489;47.502;18.940;2023-02-19T04:37:37;98181.59;;;8.27;77.35
65756;BME280;52489;47.502;18.940;2023-02-19T04:38:40;98175.88;;;8.25;77.64
65756;BME280;52489;47.502;18.940;2023-02-19T04:39:43;98173.03;;;8.21;77.62
65756;BME280;52489;47.502;18.940;2023-02-19T04:40:46;98168.16;;;8.15;77.92
65756;BME280;52489;47.502;18.940;2023-02-19T04:41:50;98169.75;;;8.11;78.17
65756;BME280;52489;47.502;18.940;2023-02-19T04:42:53;98167.44;;;8.04;78.44
65756;BME280;52489;47.502;18.940;2023-02-19T04:43:56;98170.84;;;8.05;78.61
65756;BME280;52489;47.502;18.940;2023-02-19T04:44:58;98173.88;;;8.17;78.08
65756;BME280;52489;47.502;18.940;2023-02-19T04:46:01;98172.37;;;8.11;78.26
65756;BME280;52489;47.502;18.940;2023-02-19T04:47:05;98176.84;;;8.05;78.37
65756;BME280;52489;47.502;18.940;2023-02-19T04:48:08;98184.94;;;8.04;78.51
65756;BME280;52489;47.502;18.940;2023-02-19T04:49:11;98191.19;;;8.08;78.22
65756;BME280;52489;47.502;18.940;2023-02-19T04:50:14;98203.34;;;8.17;78.33
65756;BME280;52489;47.502;18.940;2023-02-19T04:51:17;98194.34;;;8.05;78.66
65756;BME280;52489;47.502;18.940;2023-02-19T04:52:19;98194.06;;;8.06;79.16
65756;BME280;52489;47.502;18.940;2023-02-19T04:53:22;98197.53;;;8.26;78.76
65756;BME280;52489;47.502;18.940;2023-02-19T04:54:25;98191.03;;;8.23;78.87
65756;BME280;52489;47.502;18.940;2023-02-19T04:55:28;98197.78;;;8.29;79.33
65756;BME280;52489;47.502;18.940;2023-02-19T04:56:31;98189.31;;;8.42;79.07
65756;BME280;52489;47.502;18.940;2023-02-19T04:57:34;98188.69;;;8.51;78.97
65756;BME280;52489;47.502;18.940;2023-02-19T04:58:39;98187.75;;;8.41;79.35
65756;BME280;52489;47.502;18.940;2023-02-19T04:59:42;98176.25;;;8.42;79.75
65756;BME280;52489;47.502;18.940;2023-02-19T05:00:45;98176.16;;;8.53;79.61
65756;BME280;52489;47.502;18.940;2023-02-19T05:01:48;98164.78;;;8.43;80.15
65756;BME280;52489;47.502;18.940;2023-02-19T05:02:51;98172.03;;;8.47;80.35
65756;BME280;52489;47.502;18.940;2023-02-19T05:03:54;98171.94;;;8.57;80.06
65756;BME280;52489;47.502;18.940;2023-02-19T05:04:56;98168.09;;;8.49;80.31
65756;BME280;52489;47.502;18.940;2023-02-19T05:06:04;98166.38;;;8.39;80.96
65756;BME280;52489;47.502;18.940;2023-02-19T05:07:07;98166.13;;;8.36;81.02
65756;BME280;52489;47.502;18.940;2023-02-19T05:08:10;98169.13;;;8.19;82.01
65756;BME280;52489;47.502;18.940;2023-02-19T05:09:13;98179.50;;;8.29;81.86
65756;BME280;52489;47.502;18.940;2023-02-19T05:10:17;98174.81;;;8.26;82.03
65756;BME280;52489;47.502;18.940;2023-02-19T05:11:20;98163.87;;;8.24;82.15
65756;BME280;52489;47.502;18.940;2023-02-19T05:12:25;98171.44;;;8.26;82.22
65756;BME280;52489;47.502;18.940;2023-02-19T05:13:29;98169.47;;;8.41;81.87
65756;BME280;52489;47.502;18.940;2023-02-19T05:14:32;98166.59;;;8.43;81.72
65756;BME280;52489;47.502;18.940;2023-02-19T05:15:36;98167.66;;;8.37;82.12
65756;BME280;52489;47.502;18.940;2023-02-19T05:16:39;98167.81;;;8.51;81.83
65756;BME280;52489;47.502;18.940;2023-02-19T05:17:42;98166.63;;;8.38;82.28
65756;BME280;52489;47.502;18.940;2023-02-19T05:18:45;98168.09;;;8.49;82.14
65756;BME280;52489;47.502;18.940;2023-02-19T05:19:48;98171.16;;;8.56;81.93
65756;BME280;52489;47.502;18.940;2023-02-19T05:20:51;98175.69;;;8.46;82.38
65756;BME280;52489;47.502;18.940;2023-02-19T05:21:54;98173.88;;;8.46;82.44
65756;BME280;52489;47.502;18.940;2023-02-19T05:22:57;98171.72;;;8.53;82.34
65756;BME280;52489;47.502;18.940;2023-02-19T05:24:00;98176.12;;;8.58;82.10
65756;BME280;52489;47.502;18.940;2023-02-19T05:25:03;98171.16;;;8.56;82.26
65756;BME280;52489;47.502;18.940;2023-02-19T05:26:18;98171.75;;;8.48;82.73
65756;BME280;52489;47.502;18.940;2023-02-19T05:27:22;98179.50;;;8.58;82.64
65756;BME280;52489;47.502;18.940;2023-02-19T05:28:25;98175.09;;;8.54;82.82
65756;BME280;52489;47.502;18.940;2023-02-19T05:29:31;98176.88;;;8.58;82.93
65756;BME280;52489;47.502;18.940;2023-02-19T05:30:34;98171.53;;;8.45;83.61
65756;BME280;52489;47.502;18.940;2023-02-19T05:31:37;98174.28;;;8.29;84.23
65756;BME280;52489;47.502;18.940;2023-02-19T05:32:40;98175.88;;;8.25;84.84
65756;BME280;52489;47.502;18.940;2023-02-19T05:33:43;98173.91;;;8.12;85.66
65756;BME280;52489;47.502;18.940;2023-02-19T05:34:47;98177.13;;;8.04;85.99
65756;BME280;52489;47.502;18.940;2023-02-19T05:35:53;98176.91;;;7.95;86.65
65756;BME280;52489;47.502;18.940;2023-02-19T05:36:56;98164.72;;;7.90;86.66
65756;BME280;52489;47.502;18.940;2023-02-19T05:37:59;98171.72;;;7.95;86.95
65756;BME280;52489;47.502;18.940;2023-02-19T05:39:02;98165.94;;;7.98;87.32
65756;BME280;52489;47.502;18.940;2023-02-19T05:40:07;98162.09;;;7.90;87.91
65756;BME280;52489;47.502;18.940;2023-02-19T05:41:16;98167.03;;;7.92;87.98
65756;BME280;52489;47.502;18.940;2023-02-19T05:42:20;98164.97;;;7.89;88.11
65756;BME280;52489;47.502;18.940;2023-02-19T05:43:23;98161.59;;;7.88;88.00
65756;BME280;52489;47.502;18.940;2023-02-19T05:44:25;98162.88;;;7.91;87.64
65756;BME280;52489;47.502;18.940;2023-02-19T05:45:29;98168.34;;;7.89;87.47
65756;BME280;52489;47.502;18.940;2023-02-19T05:46:32;98169.44;;;7.83;87.65
65756;BME280;52489;47.502;18.940;2023-02-19T05:47:35;98174.97;;;7.82;87.97
65756;BME280;52489;47.502;18.940;2023-02-19T05:48:38;98177.56;;;7.82;88.04
65756;BME280;52489;47.502;18.940;2023-02-19T05:49:41;98179.44;;;7.76;88.17
65756;BME280;52489;47.502;18.940;2023-02-19T05:50:44;98186.75;;;7.74;88.26
65756;BME280;52489;47.502;18.940;2023-02-19T05:51:49;98188.06;;;7.71;88.95
65756;BME280;52489;47.502;18.940;2023-02-19T05:52:52;98189.13;;;7.70;89.34
65756;BME280;52489;47.502;18.940;2023-02-19T05:53:55;98180.53;;;7.70;89.93
65756;BME280;52489;47.502;18.940;2023-02-19T05:54:59;98177.63;;;7.71;90.27
65756;BME280;52489;47.502;18.940;2023-02-19T05:56:02;98178.13;;;7.79;90.22
65756;BME280;52489;47.502;18.940;2023-02-19T05:57:05;98183.12;;;7.70;89.92
65756;BME280;52489;47.502;18.940;2023-02-19T05:58:08;98185.41;;;7.77;90.14
65756;BME280;52489;47.502;18.940;2023-02-19T06:00:18;98187.34;;;7.95;91.42
65756;BME280;52489;47.502;18.940;2023-02-19T06:01:23;98185.47;;;8.01;91.43
65756;BME280;52489;47.502;18.940;2023-02-19T06:02:26;98186.34;;;7.91;91.81
65756;BME280;52489;47.502;18.940;2023-02-19T06:03:29;98190.28;;;7.88;91.95
65756;BME280;52489;47.502;18.940;2023-02-19T06:04:32;98191.78;;;7.94;92.34
65756;BME280;52489;47.502;18.940;2023-02-19T06:05:36;98183.09;;;8.04;92.19
65756;BME280;52489;47.502;18.940;2023-02-19T06:06:39;98187.84;;;8.02;92.26
65756;BME280;52489;47.502;18.940;2023-02-19T06:07:43;98199.09;;;7.92;92.84
65756;BME280;52489;47.502;18.940;2023-02-19T06:08:49;98197.25;;;7.98;93.22
65756;BME280;52489;47.502;18.940;2023-02-19T06:09:52;98186.31;;;7.96;93.42
65756;BME280;52489;47.502;18.940;2023-02-19T06:10:55;98189.94;;;8.00;93.46
65756;BME280;52489;47.502;18.940;2023-02-19T06:11:58;98188.47;;;8.18;93.14
65756;BME280;52489;47.502;18.940;2023-02-19T06:13:00;98183.06;;;8.09;93.48
65756;BME280;52489;47.502;18.940;2023-02-19T06:14:04;98187.66;;;8.23;93.17
65756;BME280;52489;47.502;18.940;2023-02-19T06:15:07;98180.97;;;8.11;93.79
65756;BME280;52489;47.502;18.940;2023-02-19T06:16:10;98174.53;;;8.28;93.11
65756;BME280;52489;47.502;18.940;2023-02-19T06:17:13;98178.13;;;8.08;93.55
65756;BME280;52489;47.502;18.940;2023-02-19T06:18:16;98179.09;;;8.17;93.63
65756;BME280;52489;47.502;18.940;2023-02-19T06:19:19;98173.38;;;8.15;93.51
65756;BME280;52489;47.502;18.940;2023-02-19T06:20:22;98177.31;;;8.36;92.84
65756;BME280;52489;47.502;18.940;2023-02-19T06:21:27;98170.91;;;8.29;93.10
65756;BME280;52489;47.502;18.940;2023-02-19T06:22:30;98183.75;;;8.20;93.55
65756;BME280;52489;47.502;18.940;2023-02-19T06:23:33;98167.59;;;8.18;93.68